Cal Poly SLO, California
Current Conditions -  °F | °C
As of 6:56 PM on Sunday 21 Dec 2014 (Local Time) from KSBP Reporting Station
Broken Clouds Broken Clouds  
Wind Chill: 63°   Ceiling: 2700
Heat Index: 63°   Visibility: 10mi
Dew Point: 55°   Wind: 6mph
Humidity: 75%   Direction: 350°N
Pressure: 30.2"   Gusts: NA
Location:  35.2748°N, 120.738°W
Report Text: KSBP 220256Z 35005KT 10SM BKN027 17/13 A3020 RMK AO2 SLP225 T01720128 53005
Loading
Personal Weather Stations






























Interactive Weather Map New forecast layout! Learn more

10-Day Weather Forecast

Advertisements
Track Severe Weather on mobile